Time;durP1;ratioP1;P1;durP2;ratioP2;P2;SDS_P1;SDS_P2;PMS_P1;PMS_P2;Temp;Humidity;BMP_temperature;BMP_pressure;BME280_temperature;BME280_humidity;BME280_pressure;Samples;Min_cycle;Max_cycle;Signal;HPM_P1;HPM_P2
2021/04/08 00:00:28;;;;;;;19.75;3.80;;;25.00;82.60;;;;;;5039006;28;20099;-52
2021/04/08 00:02:56;;;;;;;5.75;3.72;;;25.20;83.00;;;;;;5035096;28;20037;-60
2021/04/08 00:05:23;;;;;;;4.93;3.90;;;25.20;83.80;;;;;;5038058;28;20065;-61
2021/04/08 00:07:51;;;;;;;4.93;2.38;;;25.10;84.10;;;;;;5038662;28;20090;-58
2021/04/08 00:10:18;;;;;;;8.98;2.78;;;25.10;81.00;;;;;;5040935;28;20048;-59
2021/04/08 00:12:46;;;;;;;6.40;2.50;;;25.10;82.10;;;;;;5022395;28;20543;-61
2021/04/08 00:15:15;;;;;;;6.78;3.35;;;25.10;82.90;;;;;;5040758;28;20032;-60
2021/04/08 00:17:43;;;;;;;4.93;1.88;;;25.10;81.70;;;;;;5042364;28;20028;-60
2021/04/08 00:20:15;;;;;;;6.03;4.32;;;25.00;80.40;;;;;;5042364;28;20094;-58
2021/04/08 00:22:42;;;;;;;6.32;4.03;;;25.20;82.20;;;;;;5043354;28;20087;-61
2021/04/08 00:25:11;;;;;;;9.70;4.10;;;25.20;82.00;;;;;;5035768;28;20124;-56
2021/04/08 00:27:40;;;;;;;8.40;5.15;;;25.30;82.80;;;;;;5046073;28;20068;-60
2021/04/08 00:30:08;;;;;;;6.10;1.30;;;25.40;82.40;;;;;;5047390;28;20044;-66
2021/04/08 00:32:37;;;;;;;13.07;4.32;;;25.50;74.60;;;;;;5042492;28;20037;-60
2021/04/08 00:35:06;;;;;;;8.63;2.88;;;25.60;81.60;;;;;;5034814;28;20037;-59
2021/04/08 00:37:34;;;;;;;9.40;3.42;;;25.30;80.40;;;;;;5024286;28;20036;-63
2021/04/08 00:40:01;;;;;;;8.20;1.80;;;25.40;83.60;;;;;;5042428;28;20707;-54
2021/04/08 00:42:29;;;;;;;10.55;3.92;;;25.40;77.90;;;;;;5034844;28;20053;-59
2021/04/08 00:44:56;;;;;;;5.95;1.85;;;25.30;81.90;;;;;;5043790;28;20017;-60
2021/04/08 00:47:24;;;;;;;6.43;3.38;;;25.30;79.20;;;;;;5023521;28;20056;-61
2021/04/08 00:49:51;;;;;;;9.63;2.95;;;25.10;82.60;;;;;;5042315;28;20033;-63
2021/04/08 00:52:19;;;;;;;10.18;4.47;;;25.10;84.40;;;;;;5042186;28;20033;-60
2021/04/08 00:54:47;;;;;;;4.82;1.75;;;25.00;86.10;;;;;;5022208;28;20132;-57
2021/04/08 00:57:15;;;;;;;6.57;3.70;;;25.10;81.60;;;;;;5025074;28;20029;-59
2021/04/08 00:59:42;;;;;;;11.68;3.63;;;25.00;85.50;;;;;;5035418;28;20128;-63
2021/04/08 01:02:10;;;;;;;9.20;3.58;;;25.00;84.50;;;;;;5039246;28;20483;-63
2021/04/08 01:04:38;;;;;;;5.25;3.30;;;24.90;86.20;;;;;;5032363;28;20107;-62
2021/04/08 01:07:06;;;;;;;6.35;3.72;;;24.90;86.30;;;;;;5038921;28;20025;-62
2021/04/08 01:09:34;;;;;;;4.70;3.40;;;24.90;86.10;;;;;;5042221;28;20044;-56
2021/04/08 01:12:02;;;;;;;11.13;3.55;;;24.90;86.10;;;;;;5025046;28;20052;-61
2021/04/08 01:14:30;;;;;;;11.23;3.67;;;24.90;85.80;;;;;;5031295;28;20041;-58
2021/04/08 01:17:07;;;;;;;6.22;3.20;;;24.90;85.70;;;;;;5037796;28;20117;-58
2021/04/08 01:19:58;;;;;;;9.93;3.50;;;24.90;86.70;;;;;;5036140;28;20105;-61
2021/04/08 01:22:44;;;;;;;9.63;3.83;;;24.80;86.60;;;;;;5031122;28;20045;-62
2021/04/08 01:25:22;;;;;;;5.50;2.90;;;24.80;87.70;;;;;;5030909;28;20033;-61
2021/04/08 01:28:08;;;;;;;7.22;3.47;;;24.70;88.00;;;;;;5030854;28;20060;-62
2021/04/08 01:30:49;;;;;;;7.05;3.45;;;24.70;87.90;;;;;;5030505;28;20029;-60
2021/04/08 01:33:51;;;;;;;11.13;3.63;;;24.60;88.20;;;;;;5031046;28;20495;-60
2021/04/08 01:36:31;;;;;;;8.30;2.85;;;24.60;88.40;;;;;;5009058;28;20037;-56
2021/04/08 01:39:18;;;;;;;10.55;3.45;;;24.50;88.90;;;;;;5030940;28;20032;-65
2021/04/08 01:41:48;;;;;;;6.20;3.47;;;24.50;89.30;;;;;;5030912;28;20045;-56
2021/04/08 01:44:21;;;;;;;6.43;3.20;;;24.60;89.30;;;;;;5013218;28;20026;-58
2021/04/08 01:47:05;;;;;;;5.18;3.05;;;24.60;89.30;;;;;;5031133;28;20072;-58
2021/04/08 01:49:35;;;;;;;8.00;3.13;;;24.70;89.20;;;;;;5030075;28;20045;-67
2021/04/08 01:52:04;;;;;;;6.88;2.92;;;24.80;88.70;;;;;;5031430;28;20087;-60
2021/04/08 01:54:36;;;;;;;6.03;2.83;;;24.80;88.40;;;;;;5031453;28;20065;-58
2021/04/08 01:57:11;;;;;;;6.07;3.15;;;25.00;87.70;;;;;;5031384;28;20026;-67
2021/04/08 01:59:41;;;;;;;7.40;3.17;;;25.20;87.10;;;;;;5031104;28;20144;-68
2021/04/08 02:02:09;;;;;;;5.32;2.35;;;25.20;86.30;;;;;;5013778;28;20538;-62
2021/04/08 02:04:40;;;;;;;4.63;3.28;;;25.40;85.50;;;;;;5030783;28;20188;-59
2021/04/08 02:07:07;;;;;;;4.70;2.95;;;25.40;86.40;;;;;;5031288;28;20076;-65
2021/04/08 02:09:37;;;;;;;5.47;2.75;;;25.50;83.90;;;;;;5030995;28;20059;-68
2021/04/08 02:12:08;;;;;;;6.28;3.30;;;25.60;84.20;;;;;;5012917;28;20106;-56
2021/04/08 02:14:38;;;;;;;8.15;3.15;;;25.60;85.10;;;;;;5030617;28;20034;-65
2021/04/08 02:17:06;;;;;;;5.90;2.30;;;25.50;85.10;;;;;;5012735;28;20036;-60
2021/04/08 02:19:37;;;;;;;6.20;2.70;;;25.50;84.30;;;;;;5013218;28;20101;-65
2021/04/08 02:22:05;;;;;;;4.05;2.65;;;25.50;83.30;;;;;;5030283;28;20029;-64
2021/04/08 02:24:33;;;;;;;6.57;2.95;;;25.50;84.60;;;;;;5030194;28;20060;-61
2021/04/08 02:27:03;;;;;;;4.35;2.63;;;25.40;85.20;;;;;;5030271;28;20022;-65
2021/04/08 02:29:31;;;;;;;4.55;2.38;;;25.40;85.30;;;;;;5030364;28;20075;-64
2021/04/08 02:32:02;;;;;;;7.82;3.35;;;25.40;84.50;;;;;;5030220;28;20083;-65
2021/04/08 02:34:29;;;;;;;4.28;2.63;;;25.30;84.60;;;;;;5030091;28;20033;-61
2021/04/08 02:36:57;;;;;;;6.25;2.58;;;25.30;85.40;;;;;;5030446;28;20059;-69
2021/04/08 02:39:24;;;;;;;4.25;2.72;;;25.30;85.60;;;;;;5029853;28;20029;-63
2021/04/08 02:41:52;;;;;;;3.40;2.15;;;25.40;86.30;;;;;;5029753;28;20153;-66
2021/04/08 02:44:20;;;;;;;2.65;2.22;;;25.30;86.20;;;;;;5029773;28;20025;-68
2021/04/08 02:46:52;;;;;;;3.35;2.30;;;25.40;86.40;;;;;;5029834;28;20357;-63
2021/04/08 02:49:19;;;;;;;5.25;2.60;;;25.40;85.70;;;;;;5029722;28;20055;-64
2021/04/08 02:51:56;;;;;;;3.33;2.40;;;25.60;85.80;;;;;;5029654;28;20034;-67
2021/04/08 02:54:39;;;;;;;3.95;2.42;;;25.50;86.00;;;;;;5029945;28;20033;-59
2021/04/08 02:57:10;;;;;;;4.65;2.15;;;25.60;85.60;;;;;;5030001;28;20476;-61
2021/04/08 02:59:56;;;;;;;5.20;2.38;;;25.80;84.60;;;;;;5029655;28;20083;-64
2021/04/08 03:02:28;;;;;;;4.20;2.13;;;25.80;84.40;;;;;;5029268;28;20094;-63
2021/04/08 03:05:00;;;;;;;2.78;2.10;;;25.90;84.80;;;;;;5029479;28;20080;-66
2021/04/08 03:07:34;;;;;;;4.55;2.00;;;25.90;83.60;;;;;;5029631;28;20041;-62
2021/04/08 03:10:05;;;;;;;7.45;2.00;;;25.90;83.00;;;;;;5029707;28;20099;-67
2021/04/08 03:12:39;;;;;;;3.22;2.13;;;26.00;83.60;;;;;;5028999;28;20053;-59
2021/04/08 03:15:09;;;;;;;3.60;2.00;;;26.00;84.80;;;;;;5029439;28;20488;-66
2021/04/08 03:17:40;;;;;;;5.97;2.05;;;26.00;83.70;;;;;;5011366;28;20497;-65
2021/04/08 03:20:11;;;;;;;3.15;1.73;;;26.10;81.80;;;;;;5029563;28;20017;-68
2021/04/08 03:22:40;;;;;;;4.05;2.05;;;26.10;83.60;;;;;;5029113;28;20037;-63
2021/04/08 03:25:09;;;;;;;2.50;1.63;;;26.20;80.80;;;;;;5029575;28;20076;-62
2021/04/08 03:27:39;;;;;;;3.25;1.92;;;26.40;80.80;;;;;;5028826;28;20121;-61
2021/04/08 03:30:14;;;;;;;5.18;2.03;;;26.40;82.40;;;;;;5029431;28;20025;-61
2021/04/08 03:32:42;;;;;;;3.63;1.67;;;26.40;80.10;;;;;;5029423;28;20072;-68
2021/04/08 03:35:12;;;;;;;3.70;2.13;;;26.50;81.70;;;;;;5029213;28;20072;-59
2021/04/08 03:37:41;;;;;;;5.57;2.10;;;26.40;82.50;;;;;;5032249;28;20032;-53
2021/04/08 03:40:11;;;;;;;3.45;2.00;;;26.40;81.70;;;;;;5037757;28;20178;-53
2021/04/08 03:42:39;;;;;;;4.28;1.85;;;26.40;82.70;;;;;;5041740;28;20075;-59
2021/04/08 03:45:11;;;;;;;3.13;1.85;;;26.40;82.70;;;;;;5026632;28;20215;-57
2021/04/08 03:47:42;;;;;;;2.58;1.50;;;26.40;81.80;;;;;;5049805;28;20040;-61
2021/04/08 03:50:12;;;;;;;2.38;1.45;;;26.40;81.70;;;;;;5043905;28;20041;-55
2021/04/08 03:52:44;;;;;;;5.07;1.75;;;26.40;82.60;;;;;;5039066;28;20068;-61
2021/04/08 03:55:12;;;;;;;3.10;1.63;;;26.50;82.20;;;;;;5042611;28;20382;-63
2021/04/08 03:57:42;;;;;;;6.57;1.60;;;26.50;82.40;;;;;;5017274;28;20025;-65
2021/04/08 04:00:12;;;;;;;2.22;1.35;;;26.60;82.80;;;;;;5023003;28;20045;-54
2021/04/08 04:02:42;;;;;;;3.17;1.73;;;26.60;81.00;;;;;;5021733;28;20029;-58
2021/04/08 04:05:13;;;;;;;8.13;2.55;;;26.60;83.30;;;;;;5043256;28;20044;-57
2021/04/08 04:07:49;;;;;;;3.17;2.13;;;26.70;82.30;;;;;;5039849;28;20061;-54
2021/04/08 04:10:21;;;;;;;2.85;1.48;;;26.70;82.00;;;;;;5021452;28;20517;-53
2021/04/08 04:12:50;;;;;;;3.85;2.05;;;26.70;82.20;;;;;;5043077;28;20498;-59
2021/04/08 04:15:19;;;;;;;2.75;1.60;;;26.70;81.60;;;;;;5025831;28;20033;-59
2021/04/08 04:17:56;;;;;;;3.00;1.50;;;26.70;81.60;;;;;;5043302;28;20079;-56
2021/04/08 04:20:23;;;;;;;5.53;1.67;;;26.60;81.60;;;;;;5035519;28;20166;-56
2021/04/08 04:22:51;;;;;;;6.95;2.20;;;26.60;82.70;;;;;;5037765;28;20036;-61
2021/04/08 04:25:19;;;;;;;5.38;1.38;;;26.60;82.20;;;;;;5022362;28;20593;-64
2021/04/08 04:27:46;;;;;;;10.32;2.70;;;26.70;81.30;;;;;;5042006;28;20087;-54
2021/04/08 04:30:14;;;;;;;3.15;1.73;;;26.70;81.30;;;;;;5039283;28;20025;-60
2021/04/08 04:32:45;;;;;;;5.05;2.22;;;26.70;81.60;;;;;;5033339;28;20068;-61
2021/04/08 04:35:17;;;;;;;3.22;2.15;;;26.60;82.40;;;;;;5040902;28;20025;-54
2021/04/08 04:37:44;;;;;;;2.60;1.88;;;26.50;82.80;;;;;;5039001;28;20108;-60
2021/04/08 04:40:13;;;;;;;2.83;1.60;;;26.50;84.30;;;;;;5041070;28;20033;-60
2021/04/08 04:42:43;;;;;;;4.90;1.50;;;26.60;80.30;;;;;;5038093;28;20067;-56
2021/04/08 04:45:11;;;;;;;3.33;1.67;;;26.70;81.60;;;;;;5026913;28;20032;-54
2021/04/08 04:47:45;;;;;;;3.70;1.80;;;26.70;83.50;;;;;;5037058;28;20044;-62
2021/04/08 04:50:14;;;;;;;3.40;1.88;;;26.80;81.00;;;;;;5030601;28;20553;-62
2021/04/08 04:52:42;;;;;;;3.28;2.17;;;26.90;81.20;;;;;;5030070;28;20479;-61
2021/04/08 04:55:10;;;;;;;2.03;1.30;;;26.80;81.20;;;;;;5013979;28;20029;-65
2021/04/08 04:57:38;;;;;;;2.20;1.50;;;26.70;81.30;;;;;;5031980;28;20036;-56
2021/04/08 05:00:08;;;;;;;2.55;1.67;;;26.70;81.90;;;;;;5032114;28;20035;-62
2021/04/08 05:02:36;;;;;;;2.22;1.77;;;26.50;82.30;;;;;;5031763;28;20065;-62
2021/04/08 05:05:04;;;;;;;1.95;1.55;;;26.40;83.10;;;;;;5031824;28;20029;-61
2021/04/08 05:07:32;;;;;;;2.47;1.48;;;26.40;82.70;;;;;;5032694;28;20049;-67
2021/04/08 05:10:00;;;;;;;2.55;1.25;;;26.30;84.10;;;;;;5032388;28;20472;-63
2021/04/08 05:12:27;;;;;;;4.72;1.77;;;26.30;82.90;;;;;;5031661;28;20057;-64
2021/04/08 05:14:54;;;;;;;6.80;1.60;;;26.20;83.10;;;;;;5031605;28;20552;-59
2021/04/08 05:17:22;;;;;;;2.65;1.45;;;26.20;82.20;;;;;;5030956;28;20034;-59
2021/04/08 05:19:51;;;;;;;7.30;2.17;;;26.00;84.00;;;;;;5031526;28;20040;-68
2021/04/08 05:22:18;;;;;;;3.47;1.27;;;26.10;82.50;;;;;;5030942;28;20433;-66
2021/04/08 05:24:46;;;;;;;1.90;1.23;;;26.10;85.70;;;;;;5031751;28;20025;-64
2021/04/08 05:27:13;;;;;;;1.80;1.33;;;26.10;85.50;;;;;;5013990;28;20084;-62
2021/04/08 05:29:41;;;;;;;5.90;1.90;;;26.20;85.80;;;;;;5013033;28;20041;-65
2021/04/08 05:32:09;;;;;;;2.53;1.70;;;26.20;81.00;;;;;;5031345;28;20061;-70
2021/04/08 05:34:36;;;;;;;2.50;1.13;;;26.40;80.30;;;;;;5031268;28;20451;-65
2021/04/08 05:37:04;;;;;;;2.63;1.15;;;26.50;80.70;;;;;;5031144;28;20025;-70
2021/04/08 05:39:31;;;;;;;3.42;1.48;;;26.60;81.10;;;;;;5031668;28;20487;-68
2021/04/08 05:41:59;;;;;;;4.45;1.52;;;26.60;79.70;;;;;;5031255;28;20115;-58
2021/04/08 05:44:26;;;;;;;3.22;1.40;;;26.70;78.90;;;;;;5031307;28;20021;-60
2021/04/08 05:46:54;;;;;;;5.50;1.25;;;26.70;81.50;;;;;;5013560;28;20494;-66
2021/04/08 05:49:22;;;;;;;2.70;1.40;;;26.70;82.80;;;;;;5031145;28;20049;-67
2021/04/08 05:51:49;;;;;;;2.97;1.60;;;26.70;83.10;;;;;;5031465;28;20035;-63
2021/04/08 05:54:17;;;;;;;4.65;1.85;;;26.80;82.60;;;;;;5030900;28;20049;-66
2021/04/08 05:56:45;;;;;;;2.88;1.63;;;26.90;79.30;;;;;;5031599;28;20065;-67
2021/04/08 05:59:12;;;;;;;5.93;2.42;;;26.90;77.70;;;;;;5013120;28;20049;-59
2021/04/08 06:01:40;;;;;;;4.90;2.65;;;26.90;79.70;;;;;;5025559;28;20112;-65
2021/04/08 06:04:08;;;;;;;6.63;2.83;;;26.90;77.30;;;;;;5050624;28;20521;-61
2021/04/08 06:06:35;;;;;;;3.70;2.80;;;26.80;76.50;;;;;;5050385;28;20039;-58
2021/04/08 06:09:03;;;;;;;3.60;2.88;;;26.80;81.20;;;;;;5032797;28;20434;-64
2021/04/08 06:11:33;;;;;;;4.80;2.78;;;26.90;81.20;;;;;;5032448;28;20410;-63
2021/04/08 06:14:01;;;;;;;6.43;2.58;;;26.90;77.70;;;;;;5032671;28;20491;-61
2021/04/08 06:16:28;;;;;;;4.13;2.75;;;26.90;76.00;;;;;;5040773;28;20084;-59
2021/04/08 06:18:57;;;;;;;3.15;2.40;;;26.90;78.70;;;;;;5036092;28;20029;-62
2021/04/08 06:21:24;;;;;;;5.30;3.17;;;26.90;75.70;;;;;;5042975;28;20116;-62
2021/04/08 06:23:55;;;;;;;5.72;3.38;;;26.90;77.30;;;;;;5045622;28;20048;-59
2021/04/08 06:26:22;;;;;;;4.75;3.97;;;26.80;80.70;;;;;;5039803;28;20056;-60
2021/04/08 06:28:51;;;;;;;5.85;3.50;;;26.90;80.40;;;;;;5037074;28;20030;-63
2021/04/08 06:31:19;;;;;;;5.13;3.75;;;26.90;78.00;;;;;;5037017;28;20024;-62
2021/04/08 06:34:00;;;;;;;;;;;;;;;;;;;;;
2021/04/08 06:36:30;;;;;;;4.72;4.00;;;26.90;78.60;;;;;;5037177;28;20041;-61
2021/04/08 06:38:58;;;;;;;4.75;4.28;;;26.80;76.70;;;;;;5036591;28;20029;-67
2021/04/08 06:41:25;;;;;;;5.43;4.93;;;26.80;77.00;;;;;;5040220;28;20051;-62
2021/04/08 06:43:56;;;;;;;6.43;4.50;;;26.80;80.20;;;;;;5028085;28;20055;-63
2021/04/08 06:46:30;;;;;;;7.55;1.83;;;26.70;80.70;;;;;;5040061;28;20018;-58
2021/04/08 06:49:28;;;;;;;8.23;6.40;;;26.30;71.90;;;;;;5033119;28;20045;-60
2021/04/08 06:52:01;;;;;;;8.80;8.00;;;25.80;81.90;;;;;;5025156;28;20037;-58
2021/04/08 06:54:29;;;;;;;5.53;4.32;;;25.80;74.60;;;;;;5036295;28;20032;-58
2021/04/08 06:56:57;;;;;;;8.77;4.97;;;25.70;74.30;;;;;;5039947;28;20033;-52
2021/04/08 06:59:26;;;;;;;7.07;1.80;;;25.60;75.00;;;;;;5039871;28;20036;-62
2021/04/08 07:01:54;;;;;;;7.22;3.97;;;25.10;76.60;;;;;;5019138;28;20082;-60
2021/04/08 07:04:21;;;;;;;4.55;1.30;;;25.20;78.80;;;;;;5040170;28;20025;-58
2021/04/08 07:06:50;;;;;;;7.30;3.80;;;25.10;75.90;;;;;;5043393;28;20036;-58
2021/04/08 07:09:18;;;;;;;8.48;7.68;;;25.30;81.80;;;;;;5038479;28;20124;-65
2021/04/08 07:11:46;;;;;;;7.35;5.55;;;25.50;84.90;;;;;;5041802;28;20376;-61
2021/04/08 07:14:15;;;;;;;8.50;7.70;;;25.50;83.30;;;;;;5040799;28;20039;-63
2021/04/08 07:16:43;;;;;;;5.93;1.83;;;25.60;84.00;;;;;;5041333;28;20112;-57
2021/04/08 07:19:10;;;;;;;7.15;6.45;;;25.50;73.70;;;;;;5032481;28;20029;-57
2021/04/08 07:21:41;;;;;;;6.80;2.03;;;25.50;84.10;;;;;;5031758;28;20117;-62
2021/04/08 07:24:13;;;;;;;5.75;2.65;;;25.40;72.30;;;;;;5036373;28;20484;-59
2021/04/08 07:26:53;;;;;;;;;;;25.40;74.40;;;;;;5038735;28;20024;-51
2021/04/08 07:29:22;;;;;;;9.60;6.88;;;25.50;77.80;;;;;;5022924;28;19928;-51
2021/04/08 07:31:49;;;;;;;13.13;10.13;;;25.60;78.90;;;;;;5016700;28;20084;-57
2021/04/08 07:34:38;;;;;;;7.93;4.78;;;25.60;81.20;;;;;;5047883;28;20052;-55
2021/04/08 07:37:06;;;;;;;7.68;4.93;;;25.50;78.80;;;;;;5030294;28;20032;-60
2021/04/08 07:39:42;;;;;;;7.80;4.50;;;25.50;78.00;;;;;;5045051;28;20156;-63
2021/04/08 07:42:15;;;;;;;13.63;3.83;;;25.50;78.10;;;;;;5044502;28;20411;-60
2021/04/08 07:44:49;;;;;;;10.85;4.22;;;25.40;77.20;;;;;;5035960;28;20030;-59
2021/04/08 07:47:23;;;;;;;10.02;3.67;;;25.30;78.30;;;;;;5037668;28;20153;-51
2021/04/08 07:50:04;;;;;;;5.47;3.33;;;25.20;77.20;;;;;;5041467;28;20045;-56
2021/04/08 07:52:37;;;;;;;8.27;4.05;;;25.20;78.80;;;;;;5036706;28;20036;-50
2021/04/08 07:55:34;;;;;;;7.38;3.42;;;25.20;79.50;;;;;;5043571;28;20033;-54
2021/04/08 07:58:13;;;;;;;6.95;2.60;;;25.10;80.30;;;;;;5041179;28;20029;-57
2021/04/08 08:01:07;;;;;;;4.97;2.00;;;25.10;78.80;;;;;;5038776;28;20040;-64
2021/04/08 08:03:36;;;;;;;3.72;1.70;;;25.00;78.60;;;;;;5039928;28;20033;-58
2021/04/08 08:06:03;;;;;;;5.22;1.73;;;24.90;79.40;;;;;;5034977;28;20064;-56
2021/04/08 08:08:37;;;;;;;8.68;1.80;;;24.80;79.50;;;;;;5036428;28;20075;-58
2021/04/08 08:11:09;;;;;;;9.00;2.70;;;24.70;80.30;;;;;;5041787;28;20036;-57
2021/04/08 08:13:51;;;;;;;5.15;2.72;;;24.70;80.10;;;;;;5036435;28;20040;-55
2021/04/08 08:16:20;;;;;;;6.40;2.30;;;24.70;81.50;;;;;;5037271;28;20029;-55
2021/04/08 08:18:49;;;;;;;4.75;1.52;;;24.70;81.40;;;;;;5040258;28;20059;-53
2021/04/08 08:21:19;;;;;;;5.88;1.52;;;24.60;80.50;;;;;;5044135;28;20378;-56
2021/04/08 08:23:52;;;;;;;8.55;2.65;;;24.50;81.20;;;;;;5039477;28;20033;-54
2021/04/08 08:26:39;;;;;;;8.70;2.45;;;24.50;81.90;;;;;;5035117;28;20048;-63
2021/04/08 08:29:18;;;;;;;6.60;1.50;;;24.50;82.80;;;;;;5046502;28;20045;-62
2021/04/08 08:31:55;;;;;;;7.10;1.80;;;24.40;82.10;;;;;;5035931;28;20025;-64
2021/04/08 08:34:30;;;;;;;5.97;1.15;;;24.40;82.50;;;;;;5035873;28;20037;-62
2021/04/08 08:36:59;;;;;;;3.10;1.55;;;24.40;82.40;;;;;;5039415;28;20025;-58
2021/04/08 08:39:33;;;;;;;10.20;1.63;;;24.40;82.80;;;;;;5040008;28;20049;-58
2021/04/08 08:42:03;;;;;;;7.82;1.40;;;24.30;83.40;;;;;;5044718;28;20049;-58
2021/04/08 08:44:31;;;;;;;8.82;1.90;;;24.30;83.00;;;;;;5021694;28;20029;-61
2021/04/08 08:47:24;;;;;;;8.57;1.83;;;24.20;83.20;;;;;;5036734;28;20033;-58
2021/04/08 08:50:13;;;;;;;16.25;2.17;;;24.20;84.20;;;;;;5029500;28;20037;-59
2021/04/08 08:52:51;;;;;;;9.93;2.30;;;24.20;84.90;;;;;;5034824;28;20083;-59
2021/04/08 08:55:22;;;;;;;7.60;2.30;;;24.30;87.70;;;;;;5023633;28;20734;-58
2021/04/08 08:57:54;;;;;;;8.40;2.10;;;24.30;86.00;;;;;;5038167;28;20036;-59
2021/04/08 09:00:23;;;;;;;;;;;24.30;86.00;;;;;;5043641;28;20346;-59
2021/04/08 09:02:51;;;;;;;9.85;3.55;;;24.30;89.10;;;;;;5039960;28;19915;-59
2021/04/08 09:05:21;;;;;;;5.85;2.55;;;24.30;87.30;;;;;;5042755;28;20446;-60
2021/04/08 09:07:53;;;;;;;18.05;2.83;;;24.30;87.00;;;;;;5046700;28;20081;-59
2021/04/08 09:10:42;;;;;;;7.85;2.03;;;24.30;88.20;;;;;;5050754;28;20088;-60
2021/04/08 09:13:10;;;;;;;12.93;3.03;;;24.30;89.50;;;;;;5050996;28;20031;-61
2021/04/08 09:15:38;;;;;;;7.85;2.58;;;24.40;89.60;;;;;;5051449;28;20029;-60
2021/04/08 09:18:08;;;;;;;19.05;8.13;;;24.40;90.30;;;;;;5019863;28;20047;-62
2021/04/08 09:20:37;;;;;;;19.38;10.23;;;24.50;89.80;;;;;;5041406;28;20131;-61
2021/04/08 09:23:11;;;;;;;23.45;16.75;;;24.50;89.90;;;;;;5038650;28;20137;-59
2021/04/08 09:25:50;;;;;;;22.45;18.65;;;24.50;90.00;;;;;;5023692;28;20106;-60
2021/04/08 09:28:31;;;;;;;10.98;6.15;;;24.50;90.10;;;;;;5030176;28;20128;-59
2021/04/08 09:31:28;;;;;;;18.33;7.30;;;24.50;91.30;;;;;;5038725;28;20105;-61
2021/04/08 09:33:57;;;;;;;38.33;8.40;;;24.50;91.00;;;;;;5023852;28;20033;-60
2021/04/08 09:36:25;;;;;;;19.38;10.82;;;24.60;91.50;;;;;;5021711;28;20075;-63
2021/04/08 09:38:56;;;;;;;26.70;7.35;;;24.60;91.20;;;;;;5035120;28;20452;-62
2021/04/08 09:41:43;;;;;;;18.08;14.85;;;24.50;91.00;;;;;;5041073;28;20115;-63
2021/04/08 09:44:15;;;;;;;31.92;7.72;;;24.50;90.30;;;;;;5020113;28;20064;-64
2021/04/08 09:46:44;;;;;;;23.30;12.23;;;24.50;89.20;;;;;;5035188;28;20067;-65
2021/04/08 09:49:12;;;;;;;15.85;6.07;;;24.50;89.40;;;;;;5039760;28;20622;-66
2021/04/08 09:51:44;;;;;;;17.60;5.75;;;24.50;89.10;;;;;;5022534;28;20065;-61
2021/04/08 09:54:17;;;;;;;24.00;8.40;;;24.40;88.70;;;;;;5037669;28;20033;-61
2021/04/08 09:56:50;;;;;;;18.77;6.85;;;24.40;90.00;;;;;;5031648;28;20078;-59
2021/04/08 09:59:19;;;;;;;21.10;6.78;;;24.50;90.10;;;;;;5032719;28;20491;-55
2021/04/08 10:01:48;;;;;;;22.27;11.57;;;24.50;90.60;;;;;;5039372;28;20028;-59
2021/04/08 10:04:17;;;;;;;25.70;7.47;;;24.50;90.10;;;;;;5038804;28;20100;-58
2021/04/08 10:06:45;;;;;;;21.73;10.30;;;24.50;90.50;;;;;;5037884;28;20116;-60
2021/04/08 10:09:15;;;;;;;49.83;33.90;;;24.50;90.50;;;;;;5036111;28;20041;-65
2021/04/08 10:11:43;;;;;;;20.73;7.35;;;24.50;90.20;;;;;;5039274;28;20103;-59
2021/04/08 10:14:36;;;;;;;16.48;6.63;;;24.50;90.60;;;;;;5039219;28;20033;-60
2021/04/08 10:17:07;;;;;;;13.15;5.72;;;24.50;90.90;;;;;;5014743;28;20500;-61
2021/04/08 10:19:42;;;;;;;14.10;5.20;;;24.50;90.70;;;;;;5036412;28;20026;-59
2021/04/08 10:22:11;;;;;;;12.88;5.18;;;24.50;90.60;;;;;;5036406;28;20060;-62
2021/04/08 10:24:44;;;;;;;13.15;4.80;;;24.50;90.90;;;;;;5037476;28;20483;-63
2021/04/08 10:27:24;;;;;;;15.40;4.90;;;24.50;90.90;;;;;;5036805;28;20071;-56
2021/04/08 10:29:55;;;;;;;24.60;5.05;;;24.50;91.30;;;;;;5037890;28;20385;-61
2021/04/08 10:32:38;;;;;;;27.58;5.53;;;24.50;91.10;;;;;;5033434;28;20441;-59
2021/04/08 10:35:19;;;;;;;15.32;4.80;;;24.50;91.60;;;;;;5039403;28;20443;-60
2021/04/08 10:37:56;;;;;;;12.00;4.35;;;24.50;91.50;;;;;;5038330;28;20033;-63
2021/04/08 10:40:24;;;;;;;15.75;4.05;;;24.50;91.10;;;;;;5040245;28;20029;-61
2021/04/08 10:42:51;;;;;;;23.77;4.43;;;24.50;91.20;;;;;;5018379;28;20040;-57
2021/04/08 10:45:19;;;;;;;28.85;4.43;;;24.50;91.10;;;;;;5034464;28;20041;-61
2021/04/08 10:47:46;;;;;;;20.27;4.65;;;24.50;91.00;;;;;;5040705;28;20562;-60
2021/04/08 10:50:18;;;;;;;13.45;3.47;;;24.40;90.20;;;;;;5032541;28;20116;-62
2021/04/08 10:52:47;;;;;;;13.90;4.13;;;24.40;90.30;;;;;;5033006;28;20029;-61
2021/04/08 10:55:17;;;;;;;26.98;4.40;;;24.30;90.50;;;;;;5036931;28;20048;-57
2021/04/08 10:57:44;;;;;;;27.58;4.25;;;24.30;91.00;;;;;;5035726;28;20083;-56
2021/04/08 11:00:15;;;;;;;25.15;4.32;;;24.30;91.40;;;;;;5038017;28;20029;-65
2021/04/08 11:02:53;;;;;;;27.75;4.72;;;24.20;91.20;;;;;;5036045;28;20061;-59
2021/04/08 11:05:26;;;;;;;19.52;4.43;;;24.10;91.00;;;;;;5033424;28;20036;-57
2021/04/08 11:08:00;;;;;;;14.85;4.07;;;24.10;91.00;;;;;;5035311;28;20037;-63
2021/04/08 11:10:32;;;;;;;18.65;3.97;;;24.10;91.00;;;;;;5033593;28;20088;-58
2021/04/08 11:13:01;;;;;;;17.92;4.43;;;24.00;91.00;;;;;;5015780;28;20048;-56
2021/04/08 11:15:31;;;;;;;16.15;3.55;;;24.00;91.10;;;;;;5038715;28;20029;-59
2021/04/08 11:18:21;;;;;;;10.70;4.00;;;24.00;91.40;;;;;;5035979;28;20025;-54
2021/04/08 11:20:51;;;;;;;14.73;4.35;;;23.90;91.40;;;;;;5031387;28;20361;-62
2021/04/08 11:23:23;;;;;;;18.35;4.90;;;23.90;91.30;;;;;;5030642;28;20041;-63
2021/04/08 11:26:04;;;;;;;19.75;5.57;;;23.90;91.30;;;;;;5038670;28;20397;-59
2021/04/08 11:28:32;;;;;;;20.10;4.82;;;23.90;91.30;;;;;;5034800;28;20507;-54
2021/04/08 11:31:12;;;;;;;20.23;6.22;;;23.80;91.20;;;;;;5035504;28;20064;-55
2021/04/08 11:33:39;;;;;;;20.88;5.88;;;23.80;91.20;;;;;;5043971;28;20025;-55
2021/04/08 11:36:20;;;;;;;20.67;5.25;;;23.80;91.30;;;;;;5041824;28;20025;-58
2021/04/08 11:38:48;;;;;;;13.65;5.38;;;23.80;91.20;;;;;;5035823;28;20021;-51
2021/04/08 11:41:15;;;;;;;23.45;5.47;;;23.70;91.30;;;;;;5035806;28;20498;-53
2021/04/08 11:43:49;;;;;;;18.83;5.28;;;23.70;91.30;;;;;;5040671;28;20033;-55
2021/04/08 11:46:28;;;;;;;23.10;5.45;;;23.70;91.40;;;;;;5041961;28;20037;-52
2021/04/08 11:48:57;;;;;;;21.90;5.47;;;23.70;91.20;;;;;;5035619;28;20041;-52
2021/04/08 11:51:28;;;;;;;11.32;4.00;;;23.70;91.30;;;;;;5034994;28;20057;-55
2021/04/08 11:54:06;;;;;;;15.07;5.22;;;23.70;91.30;;;;;;5038108;28;20471;-51
2021/04/08 11:56:36;;;;;;;15.80;4.97;;;23.70;91.20;;;;;;5041654;28;20053;-53
2021/04/08 11:59:11;;;;;;;15.35;4.53;;;23.70;91.30;;;;;;5033317;28;20055;-46
2021/04/08 12:01:43;;;;;;;21.77;5.18;;;23.70;91.50;;;;;;5039384;28;20036;-52
2021/04/08 12:04:15;;;;;;;;;;;23.60;91.30;;;;;;5047721;28;20106;-56
2021/04/08 12:06:45;;;;;;;22.30;4.90;;;23.60;91.10;;;;;;5043984;28;19917;-58
2021/04/08 12:09:13;;;;;;;14.57;4.45;;;23.60;91.20;;;;;;5037050;28;20131;-58
2021/04/08 12:11:55;;;;;;;10.20;4.85;;;23.60;91.20;;;;;;5043557;28;20509;-56
2021/04/08 12:14:23;;;;;;;13.77;4.45;;;23.60;91.30;;;;;;5043005;28;20100;-59
2021/04/08 12:17:04;;;;;;;17.15;4.63;;;23.60;91.10;;;;;;5038613;28;20040;-59
2021/04/08 12:19:35;;;;;;;15.25;5.32;;;23.60;91.30;;;;;;5033451;28;20029;-66
2021/04/08 12:22:10;;;;;;;12.93;4.00;;;23.60;91.30;;;;;;5036664;28;20029;-61
2021/04/08 12:24:40;;;;;;;24.52;5.00;;;23.50;91.20;;;;;;5037015;28;20029;-60
2021/04/08 12:27:20;;;;;;;11.32;4.25;;;23.50;91.20;;;;;;5042790;28;20017;-60
2021/04/08 12:29:48;;;;;;;8.85;4.43;;;23.50;91.20;;;;;;5035288;28;20037;-59
2021/04/08 12:32:26;;;;;;;16.65;5.20;;;23.50;91.20;;;;;;5041560;28;20079;-53
2021/04/08 12:34:54;;;;;;;16.30;4.38;;;23.50;91.20;;;;;;5043045;28;20411;-61
2021/04/08 12:37:25;;;;;;;10.57;3.90;;;23.40;91.20;;;;;;5040181;28;20097;-58
2021/04/08 12:39:54;;;;;;;13.05;5.00;;;23.40;91.20;;;;;;5024696;28;20581;-51
2021/04/08 12:42:22;;;;;;;11.27;3.95;;;23.40;91.20;;;;;;5041558;28;20045;-57
2021/04/08 12:44:49;;;;;;;9.45;4.15;;;23.40;91.20;;;;;;5024191;28;20553;-60
2021/04/08 12:47:19;;;;;;;12.07;4.55;;;23.40;91.20;;;;;;5044991;28;20029;-57
2021/04/08 12:49:47;;;;;;;10.73;4.40;;;23.40;91.20;;;;;;5037823;28;20127;-55
2021/04/08 12:52:14;;;;;;;11.45;4.03;;;23.30;91.20;;;;;;5038241;28;20112;-58
2021/04/08 12:54:42;;;;;;;15.13;4.68;;;23.30;91.10;;;;;;5040069;28;20026;-66
2021/04/08 12:57:09;;;;;;;11.10;3.95;;;23.30;91.20;;;;;;5037832;28;20044;-62
2021/04/08 12:59:38;;;;;;;13.48;4.57;;;23.30;91.20;;;;;;5037918;28;20022;-62
2021/04/08 13:02:09;;;;;;;17.77;5.43;;;23.30;91.30;;;;;;5032325;28;20060;-60
2021/04/08 13:04:36;;;;;;;15.60;4.63;;;23.30;91.20;;;;;;5044003;28;20033;-62
2021/04/08 13:07:04;;;;;;;13.93;4.15;;;23.30;91.10;;;;;;5017391;28;20474;-58